createdAt,value
2018-08-22T00:39:54.856Z,858.53
2018-08-22T00:42:33.821Z,961.40
2018-08-22T00:45:12.279Z,958.30
2018-08-22T00:47:52.305Z,983.10
2018-08-22T00:50:36.282Z,946.37
2018-08-22T00:53:14.958Z,839.50
2018-08-22T00:55:54.297Z,884.33
2018-08-22T00:58:32.834Z,931.83
2018-08-22T01:01:14.781Z,934.83
2018-08-22T01:03:53.681Z,902.53
2018-08-22T01:06:32.244Z,870.00
2018-08-22T01:09:12.751Z,871.70
2018-08-22T01:11:56.900Z,963.67
2018-08-22T01:14:38.210Z,894.33
2018-08-22T01:17:17.061Z,971.90
2018-08-22T01:20:00.349Z,982.67
2018-08-22T01:22:39.405Z,959.60
2018-08-22T01:25:19.186Z,1038.50
2018-08-22T01:27:58.305Z,961.47
2018-08-22T01:30:37.805Z,1020.97
2018-08-22T01:33:16.262Z,1036.90
2018-08-22T01:35:57.145Z,1031.13
2018-08-22T01:38:36.044Z,1063.57
2018-08-22T01:41:14.991Z,1051.27
2018-08-22T01:43:55.203Z,1047.43
2018-08-22T01:46:35.111Z,1035.93
2018-08-22T01:49:21.507Z,955.67
2018-08-22T01:52:05.334Z,732.00
2018-08-22T01:54:50.905Z,782.57
2018-08-22T01:57:31.886Z,665.53
2018-08-22T02:00:12.648Z,718.77
2018-08-22T02:02:55.326Z,826.27
2018-08-22T02:05:37.523Z,740.87
2018-08-22T02:08:22.905Z,764.80
2018-08-22T02:11:03.925Z,806.37
2018-08-22T02:13:45.785Z,823.23
2018-08-22T02:16:23.826Z,821.57
2018-08-22T02:19:03.327Z,821.17
2018-08-22T02:21:42.949Z,786.27
2018-08-22T02:24:21.624Z,780.77
2018-08-22T02:27:00.228Z,842.07
2018-08-22T03:50:27.557Z,830.07
2018-08-22T03:53:08.260Z,841.97
2018-08-22T03:55:46.940Z,910.03
2018-08-22T03:58:26.318Z,985.20
2018-08-22T04:01:06.137Z,967.67
2018-08-22T04:03:48.322Z,899.43
2018-08-22T04:06:27.020Z,881.00
2018-08-22T04:09:09.621Z,1072.37
2018-08-22T04:11:50.264Z,1074.60
2018-08-22T04:14:31.937Z,1030.50
2018-08-22T04:17:10.376Z,1057.47
2018-08-22T04:19:56.298Z,1102.90
2018-08-22T04:22:42.900Z,1037.10
2018-08-22T04:25:23.238Z,1014.87
2018-08-22T04:28:03.115Z,1132.77
2018-08-22T04:30:41.416Z,797.67
2018-08-22T04:33:22.202Z,1126.60
2018-08-22T04:36:02.340Z,1094.57
2018-08-22T04:38:41.660Z,1036.53
2018-08-22T04:41:22.640Z,1127.40
2018-08-22T04:44:04.038Z,1123.40
2018-08-22T04:46:42.605Z,1116.53
2018-08-22T04:49:21.864Z,1085.53
2018-08-22T04:52:00.595Z,1001.93
2018-08-22T04:54:40.400Z,1030.07
2018-08-22T04:57:20.080Z,1044.70
2018-08-22T05:00:00.041Z,1055.07
2018-08-22T05:02:40.337Z,1073.70
2018-08-22T05:05:20.717Z,1125.43
2018-08-22T05:08:06.600Z,1105.50
2018-08-22T05:10:51.166Z,1102.97
2018-08-22T05:13:35.444Z,1081.40
2018-08-22T05:16:18.182Z,1060.27
2018-08-22T05:19:03.406Z,1107.30
2018-08-22T05:21:44.722Z,1086.53
2018-08-22T05:24:27.381Z,1095.77
2018-08-22T05:27:12.000Z,1107.83
2018-08-22T05:29:57.141Z,1034.97
2018-08-22T05:32:35.502Z,1092.03
2018-08-22T05:35:18.302Z,1119.73
2018-08-22T05:37:59.204Z,1076.50
2018-08-22T05:40:38.808Z,1074.43
2018-08-22T05:43:18.359Z,1087.50
2018-08-22T05:46:00.300Z,1121.67
2018-08-22T05:48:39.902Z,1043.00
2018-08-22T05:51:20.877Z,944.40
2018-08-22T05:53:59.401Z,801.63
2018-08-22T07:26:22.800Z,1336.63
2018-08-22T07:29:05.858Z,1815.17
2018-08-22T07:31:50.179Z,1757.57
2018-08-22T07:34:31.038Z,1978.37
2018-08-22T07:37:10.857Z,1999.90
2018-08-22T07:39:48.738Z,1999.90
2018-08-22T07:42:30.905Z,1731.20
2018-08-22T07:45:09.325Z,1999.90
2018-08-22T07:47:53.691Z,1185.10
2018-08-22T07:50:35.244Z,1618.40
2018-08-22T07:53:17.057Z,966.47
2018-08-22T07:55:59.969Z,737.90
2018-08-22T07:58:39.041Z,386.17
2018-08-22T08:01:17.582Z,92.00
2018-08-22T08:03:55.319Z,132.70
2018-08-22T08:06:34.582Z,706.40
2018-08-22T08:09:18.660Z,837.67
2018-08-22T08:11:56.799Z,1211.08
2018-08-22T08:14:34.578Z,1332.48
2018-08-22T08:17:15.233Z,1427.15
2018-08-22T08:19:54.823Z,1620.30
2018-08-22T08:22:38.399Z,1627.65
2018-08-22T08:25:18.839Z,1530.55
2018-08-22T08:27:56.557Z,1291.93
2018-08-22T08:30:37.896Z,766.38
2018-08-22T08:33:21.602Z,165.82
2018-08-22T08:36:01.347Z,370.42
2018-08-22T08:38:41.206Z,405.70
2018-08-22T08:41:19.352Z,117.67
2018-08-22T08:43:59.597Z,359.92
2018-08-22T08:46:42.303Z,722.85
2018-08-22T08:49:23.757Z,885.70
2018-08-22T08:52:11.160Z,942.15
2018-08-22T08:54:51.940Z,1006.65
2018-08-22T08:57:32.802Z,887.00
2018-08-22T09:00:11.540Z,632.23
2018-08-22T09:02:50.141Z,366.80
2018-08-22T09:05:30.547Z,141.77
2018-08-22T09:08:09.243Z,241.10
2018-08-22T09:10:49.710Z,77.10
2018-08-22T09:13:28.819Z,151.60
2018-08-22T09:16:06.336Z,151.37
2018-08-22T09:18:46.660Z,153.42
2018-08-22T09:21:24.578Z,327.13
2018-08-22T09:24:02.996Z,170.25
2018-08-22T09:26:44.610Z,228.18
2018-08-22T09:29:25.427Z,177.17
2018-08-22T09:32:05.340Z,161.90
2018-08-22T09:34:45.018Z,113.40
2018-08-22T09:37:24.135Z,53.15
2018-08-22T09:40:11.419Z,116.20
2018-08-22T09:42:52.699Z,210.72
2018-08-22T09:45:31.025Z,223.15
2018-08-22T09:48:13.379Z,59.15
2018-08-22T09:50:53.732Z,257.80
2018-08-22T09:53:36.680Z,98.55
2018-08-22T09:56:17.164Z,36.98
2018-08-22T09:58:56.259Z,59.20
2018-08-22T10:01:44.115Z,25.62
2018-08-22T10:04:26.752Z,74.07
2018-08-22T10:07:08.360Z,30.10
2018-08-22T10:09:51.625Z,126.80
2018-08-22T10:12:30.468Z,217.93
2018-08-22T10:15:10.498Z,168.80
2018-08-22T10:17:54.105Z,408.55
2018-08-22T10:20:34.920Z,538.63
2018-08-22T10:23:16.888Z,524.80
2018-08-22T10:25:59.581Z,655.17
2018-08-22T10:28:44.301Z,702.67
2018-08-22T10:31:30.041Z,707.30
2018-08-22T10:34:13.623Z,728.15
2018-08-22T10:36:59.985Z,681.23
2018-08-22T10:39:46.342Z,602.95
2018-08-22T10:42:26.657Z,539.10
2018-08-22T10:45:07.966Z,524.77
2018-08-22T10:47:47.401Z,508.90
2018-08-22T10:50:26.397Z,444.45
2018-08-22T10:53:12.718Z,398.02
2018-08-22T10:55:50.746Z,287.40
2018-08-22T10:58:29.541Z,202.22
2018-08-22T11:01:09.197Z,156.05
2018-08-22T11:03:50.215Z,131.10
2018-08-22T11:06:33.585Z,121.17
2018-08-22T11:09:20.743Z,97.75
2018-08-22T11:12:03.062Z,47.27
2018-08-22T11:14:48.902Z,39.30
2018-08-22T11:17:31.902Z,35.83
2018-08-22T11:20:16.517Z,47.10
2018-08-22T11:23:08.667Z,34.10
2018-08-22T11:26:01.343Z,32.25
2018-08-22T11:28:52.098Z,33.38
2018-08-22T11:31:41.939Z,35.63
2018-08-22T11:34:34.571Z,36.95
2018-08-22T11:37:20.144Z,39.05
2018-08-22T11:40:05.260Z,39.20
2018-08-22T11:42:44.961Z,34.83
2018-08-22T11:45:27.860Z,38.85
2018-08-22T11:48:09.040Z,42.55
2018-08-22T11:50:51.063Z,39.33
2018-08-22T12:26:12.047Z,62.73
2018-08-22T12:28:57.165Z,49.35
2018-08-22T12:31:38.862Z,43.08
2018-08-22T12:34:27.705Z,41.05
2018-08-22T12:37:10.423Z,45.83
2018-08-22T12:39:49.660Z,44.58
2018-08-22T12:42:34.037Z,48.05
2018-08-22T12:45:21.103Z,49.80
2018-08-22T12:48:05.643Z,57.80
2018-08-22T12:50:49.320Z,51.85
2018-08-22T12:53:29.641Z,43.90
2018-08-22T12:56:14.568Z,40.30
2018-08-22T12:58:58.241Z,38.00
2018-08-22T13:01:38.884Z,46.28
2018-08-22T13:04:17.521Z,54.20
2018-08-22T13:07:06.199Z,56.37
2018-08-22T13:09:47.659Z,62.58
2018-08-22T13:12:28.863Z,51.88
2018-08-22T13:15:11.776Z,45.98
2018-08-22T13:17:53.980Z,42.03
2018-08-22T14:08:34.337Z,30.72
2018-08-22T14:11:18.565Z,97.27
2018-08-22T14:13:59.801Z,67.03
2018-08-22T14:16:37.943Z,47.30
2018-08-22T14:19:18.044Z,22.42
2018-08-22T14:21:57.443Z,25.57
2018-08-22T14:24:37.603Z,43.58
2018-08-22T14:27:16.984Z,50.38
2018-08-22T14:29:57.317Z,41.37
2018-08-22T14:32:37.863Z,30.55
2018-08-22T14:35:21.624Z,32.67
2018-08-22T14:38:00.174Z,44.75
2018-08-22T14:40:40.682Z,40.58
2018-08-22T14:43:21.067Z,38.95
2018-08-22T14:46:02.925Z,34.95
2018-08-22T14:48:44.299Z,27.67
2018-08-22T14:51:25.861Z,32.17
2018-08-22T14:54:08.861Z,35.23
2018-08-22T14:56:48.868Z,35.45
2018-08-22T14:59:28.674Z,35.48
2018-08-22T15:02:06.722Z,35.45
2018-08-22T15:04:50.658Z,34.35
2018-08-22T15:07:32.266Z,38.65
2018-08-22T15:10:13.761Z,118.40
2018-08-22T15:12:54.320Z,254.97
2018-08-22T15:15:41.120Z,394.30
2018-08-22T15:18:25.985Z,384.13
2018-08-22T15:21:09.102Z,529.00
2018-08-22T15:23:52.123Z,639.78
2018-08-22T15:26:34.598Z,457.88
2018-08-22T15:29:15.345Z,397.42
2018-08-22T15:31:58.874Z,409.30
2018-08-22T15:34:52.638Z,344.62
2018-08-22T15:37:31.900Z,313.85
2018-08-22T15:40:11.398Z,338.48
2018-08-22T15:42:49.258Z,514.63
2018-08-22T15:45:29.657Z,196.82
2018-08-22T15:48:11.540Z,102.70
2018-08-22T15:50:49.517Z,59.98
2018-08-22T15:53:28.397Z,75.70
2018-08-22T15:56:09.619Z,303.73
2018-08-22T15:58:53.583Z,77.00
2018-08-22T16:01:37.719Z,46.15
2018-08-22T16:04:22.598Z,135.37
2018-08-22T16:07:07.920Z,435.80
2018-08-22T16:09:48.259Z,498.80
2018-08-22T16:12:32.460Z,377.05
2018-08-22T16:15:13.463Z,414.70
2018-08-22T16:18:03.320Z,539.32
2018-08-22T16:20:50.559Z,782.92
2018-08-22T16:23:31.939Z,815.98
2018-08-22T16:26:12.727Z,850.62
2018-08-22T16:29:03.619Z,704.10
2018-08-22T16:31:51.737Z,633.53
2018-08-22T16:34:31.098Z,526.52
2018-08-22T16:37:13.378Z,630.17
2018-08-22T16:39:58.037Z,555.55
2018-08-22T16:42:42.943Z,801.65
2018-08-22T16:45:25.118Z,847.05
2018-08-22T16:48:06.661Z,952.15
2018-08-22T16:50:47.717Z,1025.47
2018-08-22T16:53:30.976Z,367.85
2018-08-22T16:56:09.719Z,1145.80
2018-08-22T16:58:51.405Z,861.35
2018-08-22T17:01:31.665Z,1124.88
2018-08-22T17:04:21.054Z,1120.25
2018-08-22T17:07:07.096Z,1012.45
2018-08-22T17:09:48.881Z,848.90
2018-08-22T17:12:29.543Z,773.42
2018-08-22T17:15:10.342Z,792.37
2018-08-22T17:17:48.784Z,527.73
2018-08-22T17:20:29.441Z,251.52
2018-08-22T17:23:07.350Z,209.90
2018-08-22T17:25:45.102Z,418.95
2018-08-22T17:28:32.160Z,271.43
2018-08-22T17:31:14.938Z,548.02
2018-08-22T17:34:01.640Z,668.92
2018-08-22T17:36:42.543Z,637.05
2018-08-22T17:39:23.238Z,628.90
2018-08-22T17:42:01.126Z,735.80
2018-08-22T17:44:43.782Z,628.10
2018-08-22T17:47:24.976Z,586.23
2018-08-22T17:50:15.259Z,575.92
2018-08-22T17:53:00.079Z,600.92
2018-08-22T17:55:44.045Z,564.97
2018-08-22T17:58:25.784Z,603.92
2018-08-22T18:01:07.400Z,555.92
2018-08-22T18:03:46.140Z,517.35
2018-08-22T18:06:27.857Z,481.95
2018-08-22T18:09:08.382Z,474.05
2018-08-22T18:11:52.307Z,434.75
2018-08-22T18:14:34.664Z,431.63
2018-08-22T18:17:15.584Z,514.37
2018-08-22T18:19:57.704Z,794.55
2018-08-22T18:22:45.856Z,780.75
2018-08-22T18:25:26.740Z,849.42
2018-08-22T18:28:10.581Z,871.03
2018-08-22T18:30:53.234Z,923.95
2018-08-22T18:33:40.664Z,967.95
2018-08-22T18:36:22.536Z,981.05
2018-08-22T18:39:20.365Z,901.98
2018-08-22T18:41:59.099Z,841.95
2018-08-22T18:44:38.676Z,732.40
2018-08-22T18:47:19.317Z,665.90
2018-08-22T18:50:00.406Z,558.20
2018-08-22T18:52:40.280Z,1028.90
2018-08-22T18:55:22.037Z,1393.90
2018-08-22T18:58:04.257Z,1392.08
2018-08-22T19:00:47.159Z,1240.43
2018-08-22T19:03:26.477Z,1051.28
2018-08-22T19:06:11.402Z,1033.05
2018-08-22T19:08:52.505Z,1076.03
2018-08-22T19:11:34.000Z,1266.80
2018-08-22T19:14:16.487Z,964.70
2018-08-22T19:16:56.883Z,927.73
2018-08-22T19:19:41.643Z,941.10
2018-08-22T19:22:24.021Z,1006.80
2018-08-22T19:25:12.747Z,949.50
2018-08-22T19:27:54.662Z,869.73
2018-08-22T19:30:38.465Z,875.65
2018-08-22T19:33:26.157Z,867.67
2018-08-22T19:36:06.303Z,858.17
2018-08-22T19:38:49.088Z,857.47
2018-08-22T19:41:39.343Z,867.60
2018-08-22T19:44:17.801Z,884.47
2018-08-22T19:47:04.784Z,903.73
2018-08-22T19:49:45.679Z,907.93
2018-08-22T19:52:25.443Z,925.20
2018-08-22T19:55:07.280Z,966.80
2018-08-22T19:57:51.357Z,981.63
2018-08-22T20:00:31.315Z,989.77
2018-08-22T20:03:13.018Z,1006.40
2018-08-22T20:06:03.827Z,1052.07
2018-08-22T20:08:46.328Z,1084.57
2018-08-22T20:11:25.720Z,1105.27
2018-08-22T20:14:10.422Z,1129.57
2018-08-22T20:16:53.082Z,1126.37
2018-08-22T20:19:35.639Z,1117.33
2018-08-22T21:48:58.013Z,336.80
2018-08-22T21:51:40.135Z,300.33
2018-08-22T21:54:21.336Z,348.03
2018-08-22T21:57:00.432Z,269.57
2018-08-22T21:59:39.756Z,519.63
2018-08-22T22:02:17.952Z,566.17
2018-08-22T22:04:56.575Z,681.57
2018-08-22T22:07:36.727Z,793.63
2018-08-22T22:10:19.034Z,802.67
2018-08-22T22:12:58.294Z,969.47
2018-08-22T22:15:48.495Z,1005.13
2018-08-22T22:18:29.889Z,1089.97
2018-08-22T22:21:27.811Z,1151.10
2018-08-22T22:24:11.052Z,1172.37
2018-08-22T22:26:50.152Z,1210.90
2018-08-22T22:29:35.200Z,1242.87
2018-08-22T22:32:14.378Z,1266.07
2018-08-22T22:34:54.233Z,1268.00
2018-08-22T22:37:33.352Z,1206.40
2018-08-22T22:40:13.713Z,1305.97
2018-08-22T22:42:52.456Z,1258.20
2018-08-22T22:45:33.997Z,1215.47
2018-08-22T22:48:15.632Z,1127.30
2018-08-22T22:50:57.055Z,993.57
2018-08-22T22:53:37.911Z,927.40
2018-08-22T22:56:18.513Z,1115.70
2018-08-22T22:58:57.255Z,818.37
2018-08-22T23:01:37.071Z,571.20
2018-08-22T23:04:17.938Z,297.43
2018-08-22T23:06:58.962Z,356.20
2018-08-22T23:09:55.312Z,417.43
2018-08-22T23:12:49.453Z,475.57
2018-08-22T23:15:34.210Z,493.57
2018-08-22T23:18:13.057Z,519.40
2018-08-22T23:20:51.117Z,591.27
2018-08-22T23:23:37.435Z,515.97
2018-08-22T23:26:23.140Z,617.87
2018-08-22T23:29:02.511Z,756.50
2018-08-22T23:31:44.692Z,852.60
2018-08-22T23:34:23.921Z,808.67
2018-08-22T23:37:03.070Z,666.13
2018-08-22T23:39:45.216Z,716.33
2018-08-22T23:42:22.924Z,812.53
2018-08-22T23:45:05.134Z,837.97
2018-08-22T23:47:44.392Z,803.27
2018-08-22T23:50:23.234Z,770.63
2018-08-22T23:53:02.872Z,667.50
2018-08-22T23:55:42.135Z,540.13
2018-08-22T23:58:18.512Z,503.37
